Grand Junction, CO (81504)

7:52 PM MDT on April 29, 2017 (GMT -0600)
West Park Estates | | Change Station
Active Advisory: Freeze Warning

Elev 4682 ft 39.09 °N, 108.51 °W | Updated 9 minutes ago

Mostly Cloudy
Mostly Cloudy
51.6 °F
Feels Like 51.6 °F
N
3.0
Wind Variable Wind from NE
Gusts 6.0 mph

Today
High -- | Low -- °F
--% Chance of Precip.
Yesterday
High -- | Low -- °F
Precip. -- in
Pressure 30.00 in
Visibility 10.0 miles
Clouds Overcast 8500 ft
Dew Point 22 °F
Humidity 31%
Rainfall 0.00 in
Snow Depth Not available.
6:17 AM 8:05 PM
Waxing Crescent, 18% visible
METAR KGJT 300053Z 36014KT 10SM OVC085 11/M07 A3005 RMK AO2 SLP157 T01061067 $
Pressure 30.00 in
Visibility 10.0 miles
Clouds Overcast 8500 ft
Dew Point 22 °F
Humidity 31%
Rainfall 0.00 in
Snow Depth Not available.
6:17 AM 8:05 PM
Waxing Crescent, 18% visible
METAR KGJT 300053Z 36014KT 10SM OVC085 11/M07 A3005 RMK AO2 SLP157 T01061067 $

Get Your Daily Forecast Email!

Thanks for signing up!

Be on the lookout for a verification email in your inbox.

You'll start receiving severe weather alerts in your inbox..

×

10-Day Weather Forecast

Almanac

Astronomy

Apr. 29, 2017 Rise Set
Actual Time
Civil Twilight
Nautical Twilight
Astronomical Twilight
Moon
Length of Visible Light
Length of Day
Tomorrow will be .
, % of the Moon is Illuminated

Today's Extremes

State Highs State Lows

Community

WunderPhotos

WunderBlog® & News

Nearby

Air Quality

  Air Quality AQ Index Pollutant
Not available.

Snow Depth

Station Depth Elevation

Earthquake Activity

City Distance Mag. Time & Date
Minimum magnitude displayed is 2.5.

Coastal Water Temperatures

Place Temperature

Stations

Nearby Weather Stations

Station Location Temp. Windchill Dew Point Humidity Wind Precip. Elev Updated Type
                   

Watches & Warnings

Freeze Warning
Issued: 6:42 PM MDT Apr. 29, 2017 – National Weather Service

... Freeze warning in effect until 9 am MDT Sunday...

The National Weather Service in Grand Junction has issued a
freeze warning, which is in effect until 9 am MDT Sunday. The
freeze watch is no longer in effect.

* Locations include... Grand Junction, Fruita, and Palisade.

* Temperatures... low temperatures of 27 to 32 degrees are expected
                 early Sunday morning.

* Timing... the coldest temperatures will occur just before and
           around sunrise Sunday morning.

* Impacts... budding vegetation may be negatively impacted as
            temperatures drop below critical thresholds. Small,
            exposed water lines, such as those associated with
            swamp coolers, could freeze up.

Precautionary/preparedness actions...

A freeze warning means sub-freezing temperatures are imminent or
highly likely. These conditions will kill crops and other
sensitive vegetation.